Burbank, California
Current Conditions -  °F | °C
As of 12:53 PM on Saturday 25 Oct 2014 (Local Time) from KBUR Reporting Station
Overcast Overcast  
Wind Chill: 79°   Ceiling: 9000
Heat Index: 79°   Visibility: 10mi
Dew Point: 37°   Wind: 5mph
Humidity: 22%   Direction: NA
Pressure: 30.05"   Gusts: NA
Location:  34.18°N, 118.3°W
Report Text: KBUR 251953Z VRB04KT 10SM OVC090 26/03 A3005 RMK AO2 SLP162 T02610028
Loading
Personal Weather Stations






























Interactive Weather Map New forecast layout! Learn more

10-Day Weather Forecast

Advertisements
Track Severe Weather on mobile